createdAt,value
2018-09-12T00:01:05.985Z,2.27
2018-09-12T00:03:34.314Z,2.60
2018-09-12T00:06:02.626Z,2.47
2018-09-12T00:08:30.946Z,2.50
2018-09-12T00:10:59.811Z,2.90
2018-09-12T00:13:28.217Z,2.97
2018-09-12T00:15:56.582Z,2.50
2018-09-12T00:18:24.937Z,2.67
2018-09-12T00:20:53.270Z,2.47
2018-09-12T00:23:21.590Z,2.70
2018-09-12T00:25:50.691Z,2.53
2018-09-12T00:28:19.004Z,3.17
2018-09-12T00:30:47.324Z,2.70
2018-09-12T00:33:15.615Z,2.13
2018-09-12T00:35:43.944Z,2.40
2018-09-12T00:38:12.285Z,2.80
2018-09-12T00:40:42.165Z,2.70
2018-09-12T00:43:10.472Z,2.40
2018-09-12T00:45:38.778Z,2.77
2018-09-12T00:48:07.746Z,2.70
2018-09-12T00:50:36.089Z,2.37
2018-09-12T00:53:04.454Z,3.50
2018-09-12T00:55:32.792Z,2.93
2018-09-12T00:58:01.121Z,3.27
2018-09-12T01:00:29.442Z,3.30
2018-09-12T01:02:58.521Z,3.13
2018-09-12T01:05:26.817Z,3.40
2018-09-12T01:07:55.208Z,2.97
2018-09-12T01:10:23.528Z,2.67
2018-09-12T01:12:51.877Z,3.30
2018-09-12T01:15:20.230Z,2.63
2018-09-12T01:17:48.566Z,3.40
2018-09-12T01:20:17.286Z,2.83
2018-09-12T01:22:45.640Z,2.70
2018-09-12T01:25:14.694Z,2.77
2018-09-12T01:27:43.033Z,2.10
2018-09-12T01:30:15.605Z,3.13
2018-09-12T01:32:44.901Z,2.90
2018-09-12T01:35:13.845Z,3.90
2018-09-12T01:37:43.359Z,3.07
2018-09-12T01:40:11.686Z,3.33
2018-09-12T01:42:40.062Z,2.90
2018-09-12T01:45:08.465Z,2.50
2018-09-12T01:47:36.807Z,3.10
2018-09-12T01:50:05.333Z,3.20
2018-09-12T01:52:33.701Z,2.70
2018-09-12T01:55:02.032Z,3.53
2018-09-12T01:57:30.665Z,2.87
2018-09-12T01:59:58.980Z,2.83
2018-09-12T02:02:27.270Z,2.67
2018-09-12T02:04:55.666Z,3.30
2018-09-12T02:07:24.009Z,3.40
2018-09-12T02:09:52.314Z,3.43
2018-09-12T02:12:20.652Z,3.50
2018-09-12T02:14:48.969Z,3.70
2018-09-12T02:17:17.313Z,2.90
2018-09-12T02:19:45.818Z,3.43
2018-09-12T02:22:14.211Z,3.57
2018-09-12T02:24:43.456Z,3.10
2018-09-12T02:27:11.772Z,3.00
2018-09-12T02:29:40.136Z,3.23
2018-09-12T02:32:08.472Z,3.30
2018-09-12T02:34:36.772Z,3.47
2018-09-12T02:37:05.662Z,3.27
2018-09-12T02:39:33.965Z,3.37
2018-09-12T02:42:02.266Z,3.80
2018-09-12T02:44:31.157Z,3.50
2018-09-12T02:46:59.483Z,3.57
2018-09-12T02:49:28.416Z,2.73
2018-09-12T02:51:56.764Z,3.30
2018-09-12T02:54:25.087Z,3.30
2018-09-12T02:56:53.412Z,3.77
2018-09-12T02:59:21.747Z,3.10
2018-09-12T03:01:50.073Z,3.20
2018-09-12T03:04:18.380Z,3.13
2018-09-12T03:06:46.701Z,2.77
2018-09-12T03:09:15.054Z,2.77
2018-09-12T03:11:43.344Z,3.20
2018-09-12T03:14:11.877Z,3.03
2018-09-12T03:16:40.217Z,3.40
2018-09-12T03:19:08.580Z,2.70
2018-09-12T03:21:36.969Z,3.20
2018-09-12T03:24:05.497Z,3.20
2018-09-12T03:26:34.132Z,3.30
2018-09-12T03:29:02.486Z,3.20
2018-09-12T03:31:30.840Z,2.83
2018-09-12T03:33:59.180Z,3.83
2018-09-12T03:36:27.529Z,3.47
2018-09-12T03:38:55.853Z,3.37
2018-09-12T03:41:24.194Z,2.97
2018-09-12T03:43:53.379Z,2.90
2018-09-12T03:46:21.706Z,3.07
2018-09-12T03:48:50.037Z,4.00
2018-09-12T03:51:18.517Z,3.50
2018-09-12T03:53:47.012Z,2.80
2018-09-12T03:56:15.368Z,3.20
2018-09-12T03:58:43.715Z,3.10
2018-09-12T04:01:12.056Z,3.23
2018-09-12T04:03:40.361Z,3.60
2018-09-12T04:06:08.669Z,3.57
2018-09-12T04:08:36.984Z,3.10
2018-09-12T04:11:05.357Z,3.20
2018-09-12T04:13:34.624Z,2.87
2018-09-12T04:16:02.996Z,4.60
2018-09-12T04:18:31.328Z,2.93
2018-09-12T04:20:59.692Z,3.63
2018-09-12T04:23:28.072Z,3.43
2018-09-12T04:25:56.429Z,2.90
2018-09-12T04:28:24.794Z,3.90
2018-09-12T04:30:53.121Z,3.43
2018-09-12T04:33:21.436Z,3.53
2018-09-12T04:35:49.802Z,3.57
2018-09-12T04:38:18.158Z,3.07
2018-09-12T04:40:46.540Z,4.03
2018-09-12T04:43:14.897Z,3.10
2018-09-12T04:45:43.213Z,3.53
2018-09-12T04:48:11.565Z,3.67
2018-09-12T04:50:39.948Z,3.87
2018-09-12T04:53:08.279Z,3.30
2018-09-12T04:55:36.614Z,4.00
2018-09-12T04:58:05.156Z,3.53
2018-09-12T05:00:33.481Z,3.57
2018-09-12T05:03:01.800Z,3.47
2018-09-12T05:05:30.305Z,3.50
2018-09-12T05:07:59.321Z,4.00
2018-09-12T05:10:27.651Z,4.13
2018-09-12T05:12:56.021Z,4.10
2018-09-12T05:15:24.456Z,3.70
2018-09-12T05:17:52.869Z,4.03
2018-09-12T05:20:21.281Z,3.23
2018-09-12T05:22:49.689Z,3.83
2018-09-12T05:25:17.985Z,3.50
2018-09-12T05:27:47.645Z,4.50
2018-09-12T05:30:16.636Z,3.60
2018-09-12T05:32:45.052Z,4.23
2018-09-12T05:35:13.455Z,3.20
2018-09-12T05:37:42.328Z,3.50
2018-09-12T05:40:10.665Z,3.90
2018-09-12T05:42:39.136Z,3.40
2018-09-12T05:45:07.581Z,3.50
2018-09-12T05:47:35.916Z,4.60
2018-09-12T05:50:04.818Z,3.40
2018-09-12T05:52:33.115Z,3.90
2018-09-12T05:55:01.457Z,4.53
2018-09-12T05:57:29.772Z,4.30
2018-09-12T05:59:58.689Z,3.57
2018-09-12T06:02:27.008Z,4.03
2018-09-12T06:04:55.441Z,3.37
2018-09-12T06:07:23.975Z,4.83
2018-09-12T06:09:52.620Z,4.27
2018-09-12T06:12:21.104Z,3.80
2018-09-12T06:14:49.402Z,3.60
2018-09-12T06:17:17.723Z,3.50
2018-09-12T06:19:47.131Z,3.50
2018-09-12T06:22:15.475Z,3.53
2018-09-12T06:24:43.767Z,2.87
2018-09-12T06:27:12.148Z,3.73
2018-09-12T06:29:40.642Z,3.60
2018-09-12T06:32:08.957Z,3.67
2018-09-12T06:34:37.285Z,4.27
2018-09-12T06:37:05.614Z,3.20
2018-09-12T06:39:35.073Z,3.10
2018-09-12T06:42:04.050Z,3.90
2018-09-12T06:44:32.391Z,4.17
2018-09-12T06:47:00.743Z,3.30
2018-09-12T06:49:29.070Z,3.23
2018-09-12T06:51:57.376Z,3.57
2018-09-12T06:54:25.708Z,3.00
2018-09-12T06:56:54.115Z,3.70
2018-09-12T06:59:22.529Z,3.90
2018-09-12T07:01:50.847Z,3.87
2018-09-12T07:04:19.990Z,3.60
2018-09-12T07:06:48.389Z,3.90
2018-09-12T07:09:16.705Z,3.50
2018-09-12T07:11:45.017Z,3.63
2018-09-12T07:14:13.349Z,2.60
2018-09-12T07:16:41.755Z,3.53
2018-09-12T07:19:12.886Z,3.07
2018-09-12T07:21:41.662Z,3.27
2018-09-12T07:24:10.476Z,3.63
2018-09-12T07:26:38.826Z,4.03
2018-09-12T07:29:07.705Z,4.87
2018-09-12T07:31:36.562Z,3.80
2018-09-12T07:34:04.896Z,3.73
2018-09-12T07:36:33.217Z,3.70
2018-09-12T07:39:01.545Z,3.97
2018-09-12T07:41:30.039Z,3.53
2018-09-12T07:43:59.416Z,4.90
2018-09-12T07:46:27.795Z,3.70
2018-09-12T07:48:56.746Z,3.50
2018-09-12T07:51:25.158Z,4.40
2018-09-12T07:53:53.444Z,3.83
2018-09-12T07:56:21.860Z,4.83
2018-09-12T07:58:50.402Z,4.50
2018-09-12T08:01:19.132Z,4.53
2018-09-12T08:03:47.437Z,5.30
2018-09-12T08:06:15.784Z,4.93
2018-09-12T08:08:44.090Z,5.50
2018-09-12T08:11:12.476Z,6.00
2018-09-12T08:13:41.126Z,5.80
2018-09-12T08:16:09.775Z,5.83
2018-09-12T08:18:38.634Z,5.37
2018-09-12T08:21:07.018Z,6.13
2018-09-12T08:23:35.332Z,6.50
2018-09-12T08:26:03.662Z,6.07
2018-09-12T08:28:32.005Z,6.27
2018-09-12T08:31:00.331Z,5.50
2018-09-12T08:33:28.718Z,5.63
2018-09-12T08:35:57.570Z,5.17
2018-09-12T08:38:25.937Z,8.33
2018-09-12T08:40:54.233Z,6.57
2018-09-12T08:43:22.577Z,4.53
2018-09-12T08:45:50.887Z,6.03
2018-09-12T08:48:19.823Z,5.60
2018-09-12T08:50:49.763Z,6.00
2018-09-12T08:53:18.628Z,5.77
2018-09-12T08:55:47.780Z,5.33
2018-09-12T08:58:16.167Z,5.90
2018-09-12T09:00:44.640Z,5.60
2018-09-12T09:03:12.984Z,5.90
2018-09-12T09:05:41.327Z,4.33
2018-09-12T09:08:09.714Z,7.10
2018-09-12T09:10:38.094Z,5.40
2018-09-12T09:13:06.348Z,5.53
2018-09-12T09:15:34.664Z,5.00
2018-09-12T09:18:03.004Z,4.87
2018-09-12T09:20:31.649Z,5.00
2018-09-12T09:22:59.965Z,5.03
2018-09-12T09:25:28.287Z,4.37
2018-09-12T09:27:56.625Z,5.00
2018-09-12T09:30:27.892Z,4.47
2018-09-12T09:32:56.246Z,5.10
2018-09-12T09:35:24.685Z,4.53
2018-09-12T09:37:52.937Z,4.43
2018-09-12T09:40:21.275Z,6.60
2018-09-12T09:42:49.648Z,3.70
2018-09-12T09:45:17.902Z,5.20
2018-09-12T09:47:46.445Z,5.00
2018-09-12T09:50:14.873Z,6.53
2018-09-12T09:52:43.228Z,5.83
2018-09-12T09:55:11.660Z,4.30
2018-09-12T09:57:39.925Z,4.60
2018-09-12T10:00:14.914Z,4.83
2018-09-12T10:02:47.430Z,4.60
2018-09-12T10:05:21.151Z,4.60
2018-09-12T10:07:53.751Z,4.40
2018-09-12T10:10:22.058Z,5.00
2018-09-12T10:12:50.449Z,4.30
2018-09-12T10:15:18.759Z,3.90
2018-09-12T10:17:47.324Z,5.30
2018-09-12T10:20:15.628Z,4.23
2018-09-12T10:22:43.933Z,3.60
2018-09-12T10:25:12.520Z,5.27
2018-09-12T10:27:41.948Z,4.57
2018-09-12T10:30:10.499Z,5.10
2018-09-12T10:32:41.480Z,3.70
2018-09-12T10:35:11.220Z,3.83
2018-09-12T10:37:42.597Z,4.60
2018-09-12T10:40:13.952Z,4.27
2018-09-12T10:42:42.257Z,2.80
2018-09-12T10:45:12.679Z,3.93
2018-09-12T10:47:41.042Z,3.80
2018-09-12T10:50:09.370Z,4.10
2018-09-12T10:52:37.743Z,4.93
2018-09-12T10:55:16.372Z,4.60
2018-09-12T10:57:44.693Z,3.70
2018-09-12T11:00:15.625Z,4.77
2018-09-12T11:02:51.233Z,6.43
2018-09-12T11:05:19.576Z,4.33
2018-09-12T11:07:47.915Z,4.33
2018-09-12T11:10:16.260Z,3.50
2018-09-12T11:12:45.229Z,5.10
2018-09-12T11:15:13.977Z,4.10
2018-09-12T11:17:42.434Z,5.50
2018-09-12T11:20:10.787Z,4.80
2018-09-12T11:22:39.144Z,4.80
2018-09-12T11:25:07.573Z,4.43
2018-09-12T11:27:36.135Z,5.27
2018-09-12T11:30:04.852Z,4.27
2018-09-12T11:32:33.178Z,4.77
2018-09-12T11:35:01.487Z,5.00
2018-09-12T11:37:29.880Z,4.07
2018-09-12T11:39:58.604Z,3.97
2018-09-12T11:42:27.024Z,4.73
2018-09-12T11:44:55.366Z,4.70
2018-09-12T11:47:24.325Z,5.80
2018-09-12T11:49:52.718Z,4.17
2018-09-12T11:52:21.013Z,3.50
2018-09-12T11:54:49.333Z,3.60
2018-09-12T11:57:17.921Z,3.10
2018-09-12T11:59:46.879Z,3.20
2018-09-12T12:02:15.252Z,3.27
2018-09-12T12:04:43.541Z,2.83
2018-09-12T12:07:11.858Z,3.20
2018-09-12T12:09:41.207Z,3.27
2018-09-12T12:12:09.516Z,3.20
2018-09-12T12:14:37.836Z,4.20
2018-09-12T12:17:06.173Z,18.73
2018-09-12T12:19:34.503Z,10.70
2018-09-12T12:22:02.832Z,12.57
2018-09-12T12:24:31.137Z,10.97
2018-09-12T12:26:59.483Z,3.00
2018-09-12T12:29:27.825Z,8.50
2018-09-12T12:31:56.512Z,24.73
2018-09-12T12:34:24.869Z,3.40
2018-09-12T12:36:53.227Z,5.80
2018-09-12T12:39:21.578Z,6.77
2018-09-12T12:41:49.884Z,3.10
2018-09-12T12:44:18.188Z,5.93
2018-09-12T12:46:46.525Z,20.40
2018-09-12T12:49:14.857Z,11.20
2018-09-12T12:51:43.194Z,5.67
2018-09-12T12:54:11.544Z,4.20
2018-09-12T12:56:39.864Z,5.60
2018-09-12T12:59:08.205Z,3.33
2018-09-12T13:01:36.532Z,4.33
2018-09-12T13:04:04.848Z,5.00
2018-09-12T13:06:33.176Z,4.70
2018-09-12T13:09:01.541Z,3.50
2018-09-12T13:11:29.907Z,3.97
2018-09-12T13:13:58.229Z,4.07
2018-09-12T13:16:26.606Z,3.97
2018-09-12T13:18:54.932Z,3.90
2018-09-12T13:21:23.260Z,3.90
2018-09-12T13:23:52.091Z,4.13
2018-09-12T13:26:20.446Z,3.00
2018-09-12T13:28:48.762Z,3.23
2018-09-12T13:31:17.131Z,3.80
2018-09-12T13:33:45.442Z,3.07
2018-09-12T13:36:13.757Z,3.77
2018-09-12T13:38:42.076Z,3.53
2018-09-12T13:41:10.422Z,4.07
2018-09-12T13:43:38.745Z,4.30
2018-09-12T13:46:07.677Z,4.10
2018-09-12T13:48:36.026Z,4.23
2018-09-12T13:51:04.336Z,3.93
2018-09-12T13:53:32.672Z,4.80
2018-09-12T13:56:01.036Z,5.30
2018-09-12T13:58:29.591Z,5.47
2018-09-12T14:00:57.913Z,4.10
2018-09-12T14:03:26.342Z,5.40
2018-09-12T14:05:54.760Z,5.27
2018-09-12T14:08:23.088Z,6.67
2018-09-12T14:10:51.482Z,6.70
2018-09-12T14:13:20.220Z,7.87
2018-09-12T14:15:49.269Z,6.87
2018-09-12T14:18:17.724Z,8.20
2018-09-12T14:20:46.118Z,10.37
2018-09-12T14:23:14.419Z,9.77
2018-09-12T14:25:44.036Z,9.00
2018-09-12T14:28:13.422Z,10.50
2018-09-12T14:30:41.737Z,11.20
2018-09-12T14:33:10.065Z,11.37
2018-09-12T14:35:38.559Z,12.17
2018-09-12T14:38:07.133Z,10.80
2018-09-12T14:40:35.437Z,9.77
2018-09-12T14:43:03.749Z,9.93
2018-09-12T14:45:37.227Z,10.10
2018-09-12T14:48:05.564Z,9.80
2018-09-12T14:50:33.894Z,9.20
2018-09-12T14:53:02.424Z,9.83
2018-09-12T14:55:30.811Z,7.13
2018-09-12T14:57:59.318Z,7.67
2018-09-12T15:00:28.386Z,8.17
2018-09-12T15:02:57.992Z,8.43
2018-09-12T15:05:26.633Z,8.33
2018-09-12T15:07:55.561Z,7.43
2018-09-12T15:10:28.104Z,9.07
2018-09-12T15:12:56.916Z,9.40
2018-09-12T15:15:25.286Z,8.07
2018-09-12T15:17:53.580Z,10.33
2018-09-12T15:20:21.901Z,9.10
2018-09-12T15:22:50.200Z,12.20
2018-09-12T15:25:18.531Z,14.93
2018-09-12T15:27:46.840Z,15.83
2018-09-12T15:30:15.154Z,14.87
2018-09-12T15:32:43.508Z,16.23
2018-09-12T15:35:11.891Z,16.00
2018-09-12T15:37:40.345Z,16.00
2018-09-12T15:40:11.281Z,17.53
2018-09-12T15:42:46.109Z,16.67
2018-09-12T15:45:15.036Z,20.57
2018-09-12T15:47:43.421Z,19.73
2018-09-12T15:50:11.865Z,17.90
2018-09-12T15:52:40.300Z,20.17
2018-09-12T15:55:08.668Z,20.63
2018-09-12T15:57:37.016Z,20.60
2018-09-12T16:00:05.702Z,21.57
2018-09-12T16:02:34.149Z,20.63
2018-09-12T16:05:09.823Z,22.70
2018-09-12T16:07:39.268Z,30.10
2018-09-12T16:10:08.545Z,21.00
2018-09-12T16:12:36.912Z,18.60
2018-09-12T16:15:07.021Z,13.80
2018-09-12T16:17:35.328Z,12.20
2018-09-12T16:20:03.877Z,10.03
2018-09-12T16:22:32.240Z,8.97
2018-09-12T16:25:00.861Z,8.40
2018-09-12T16:27:29.170Z,9.07
2018-09-12T16:29:57.521Z,8.10
2018-09-12T16:32:25.913Z,8.07
2018-09-12T16:34:54.257Z,8.20
2018-09-12T16:37:25.157Z,7.97
2018-09-12T16:39:53.524Z,7.93
2018-09-12T16:42:21.825Z,7.90
2018-09-12T16:44:50.168Z,8.47
2018-09-12T16:47:18.471Z,7.17
2018-09-12T16:49:47.009Z,8.00
2018-09-12T16:52:15.536Z,7.27
2018-09-12T16:54:43.869Z,7.60
2018-09-12T16:57:12.558Z,7.80
2018-09-12T16:59:40.990Z,6.13
2018-09-12T17:02:09.314Z,6.77
2018-09-12T17:04:37.657Z,6.80
2018-09-12T17:07:06.013Z,7.67
2018-09-12T17:09:34.365Z,9.93
2018-09-12T17:12:02.693Z,8.67
2018-09-12T17:14:31.051Z,8.23
2018-09-12T17:16:59.379Z,8.37
2018-09-12T17:19:28.072Z,8.07
2018-09-12T17:21:56.448Z,7.70
2018-09-12T17:24:24.826Z,7.97
2018-09-12T17:26:53.185Z,8.07
2018-09-12T17:29:21.487Z,9.17
2018-09-12T17:31:49.808Z,9.03
2018-09-12T17:34:18.130Z,8.23
2018-09-12T17:36:46.488Z,7.97
2018-09-12T17:39:15.197Z,7.47
2018-09-12T17:41:43.515Z,8.00
2018-09-12T17:44:12.063Z,8.33
2018-09-12T17:46:40.360Z,8.87
2018-09-12T17:49:08.714Z,7.80
2018-09-12T17:51:37.030Z,7.63
2018-09-12T17:54:05.388Z,6.60
2018-09-12T17:56:34.263Z,6.80
2018-09-12T17:59:02.640Z,7.50
2018-09-12T18:01:30.936Z,3.87
2018-09-12T18:03:59.376Z,2.87
2018-09-12T18:06:28.333Z,2.00
2018-09-12T18:08:56.800Z,1.90
2018-09-12T18:11:25.123Z,1.50
2018-09-12T18:13:53.489Z,1.90
2018-09-12T18:16:24.626Z,2.40
2018-09-12T18:18:52.978Z,2.90
2018-09-12T18:21:21.329Z,3.37
2018-09-12T18:23:49.927Z,3.07
2018-09-12T18:26:18.249Z,1.97
2018-09-12T18:28:46.618Z,3.00
2018-09-12T18:31:15.142Z,2.70
2018-09-12T18:33:43.473Z,3.60
2018-09-12T18:36:11.910Z,2.87
2018-09-12T18:38:40.165Z,2.40
2018-09-12T18:41:08.489Z,2.57
2018-09-12T18:43:36.853Z,2.73
2018-09-12T18:46:05.567Z,4.10
2018-09-12T18:48:33.902Z,1.90
2018-09-12T18:51:08.207Z,2.47
2018-09-12T18:53:36.905Z,2.27
2018-09-12T18:56:05.540Z,2.40
2018-09-12T18:58:33.868Z,2.30
2018-09-12T19:01:02.188Z,2.70
2018-09-12T19:03:30.605Z,2.97
2018-09-12T19:05:59.252Z,3.00
2018-09-12T19:08:29.636Z,2.50
2018-09-12T19:10:57.970Z,3.27
2018-09-12T19:13:26.324Z,3.70
2018-09-12T19:15:54.724Z,3.87
2018-09-12T19:18:23.106Z,4.87
2018-09-12T19:20:51.436Z,4.97
2018-09-12T19:23:19.955Z,4.90
2018-09-12T19:25:48.293Z,5.00
2018-09-12T19:28:16.823Z,5.20
2018-09-12T19:30:47.741Z,5.60
2018-09-12T19:33:18.794Z,5.97
2018-09-12T19:35:47.175Z,6.10
2018-09-12T19:38:16.826Z,6.70
2018-09-12T19:40:45.203Z,6.93
2018-09-12T19:43:13.525Z,6.80
2018-09-12T19:46:23.499Z,6.77
2018-09-12T19:49:17.876Z,6.03
2018-09-12T19:51:53.582Z,5.80
2018-09-12T19:54:29.324Z,5.70
2018-09-12T19:57:09.994Z,5.77
2018-09-12T19:59:42.236Z,5.70
2018-09-12T20:02:12.577Z,5.33
2018-09-12T20:04:45.613Z,5.27
2018-09-12T20:07:17.308Z,4.90
2018-09-12T20:09:50.541Z,5.00
2018-09-12T20:12:22.779Z,5.07
2018-09-12T20:15:02.038Z,5.00
2018-09-12T20:17:30.626Z,5.10
2018-09-12T20:19:59.068Z,4.70
2018-09-12T20:22:27.437Z,4.73
2018-09-12T20:24:58.559Z,5.40
2018-09-12T20:27:26.901Z,5.13
2018-09-12T20:29:55.290Z,5.13
2018-09-12T20:32:23.588Z,4.50
2018-09-12T20:34:51.968Z,4.93
2018-09-12T20:37:20.331Z,5.10
2018-09-12T20:39:48.656Z,5.17
2018-09-12T20:42:16.974Z,4.70
2018-09-12T20:44:45.362Z,4.70
2018-09-12T20:47:13.674Z,4.00
2018-09-12T20:49:41.998Z,3.90
2018-09-12T20:52:10.295Z,4.63
2018-09-12T20:54:38.684Z,4.60
2018-09-12T20:57:07.056Z,4.90
2018-09-12T20:59:35.922Z,5.20
2018-09-12T21:02:04.306Z,6.33
2018-09-12T21:04:32.646Z,6.30
2018-09-12T21:07:02.616Z,6.10
2018-09-12T21:09:31.656Z,6.80
2018-09-12T21:12:00.031Z,7.17
2018-09-12T21:14:28.320Z,7.60
2018-09-12T21:16:56.755Z,7.50
2018-09-12T21:19:25.130Z,7.30
2018-09-12T21:21:53.463Z,6.53
2018-09-12T21:24:21.756Z,5.30
2018-09-12T21:26:50.125Z,5.00
2018-09-12T21:29:18.517Z,5.07
2018-09-12T21:31:47.344Z,4.90
2018-09-12T21:34:15.652Z,5.60
2018-09-12T21:36:43.948Z,4.83
2018-09-12T21:39:14.843Z,4.60
2018-09-12T21:41:43.249Z,4.10
2018-09-12T21:44:11.982Z,4.20
2018-09-12T21:46:46.898Z,7.73
2018-09-12T21:49:15.217Z,6.37
2018-09-12T21:51:43.557Z,6.80
2018-09-12T21:54:11.902Z,6.90
2018-09-12T21:56:40.253Z,7.33
2018-09-12T21:59:08.574Z,7.63
2018-09-12T22:01:36.969Z,7.87
2018-09-12T22:04:05.313Z,8.27
2018-09-12T22:06:33.633Z,7.53
2018-09-12T22:09:02.488Z,8.10
2018-09-12T22:11:30.804Z,8.40
2018-09-12T22:13:59.116Z,9.23
2018-09-12T22:16:27.541Z,9.63
2018-09-12T22:18:55.848Z,9.50
2018-09-12T22:21:24.988Z,10.10
2018-09-12T22:23:53.296Z,11.00
2018-09-12T22:26:22.120Z,10.03
2018-09-12T22:28:50.429Z,10.87
2018-09-12T22:31:18.783Z,11.67
2018-09-12T22:33:47.180Z,10.30
2018-09-12T22:36:15.508Z,11.33
2018-09-12T22:38:43.836Z,10.80
2018-09-12T22:41:13.291Z,12.20
2018-09-12T22:43:42.122Z,11.70
2018-09-12T22:46:10.428Z,12.40
2018-09-12T22:48:38.744Z,12.73
2018-09-12T22:51:07.043Z,13.80
2018-09-12T22:53:35.385Z,13.87
2018-09-12T22:56:04.065Z,13.63
2018-09-12T22:58:33.380Z,13.07
2018-09-12T23:01:01.709Z,13.27
2018-09-12T23:03:30.066Z,15.10
2018-09-12T23:05:58.482Z,16.10
2018-09-12T23:08:26.800Z,16.20
2018-09-12T23:10:55.100Z,15.20
2018-09-12T23:13:23.448Z,17.23
2018-09-12T23:15:52.132Z,18.23
2018-09-12T23:18:20.435Z,17.30
2018-09-12T23:20:48.764Z,17.10
2018-09-12T23:23:17.073Z,19.30
2018-09-12T23:25:45.399Z,21.13
2018-09-12T23:28:13.729Z,21.17
2018-09-12T23:30:42.684Z,20.27
2018-09-12T23:33:11.317Z,23.70
2018-09-12T23:35:39.644Z,23.97
2018-09-12T23:38:07.983Z,24.43
2018-09-12T23:40:36.356Z,26.00
2018-09-12T23:43:04.669Z,27.27
2018-09-12T23:45:32.977Z,24.43
2018-09-12T23:48:01.632Z,25.33
2018-09-12T23:50:29.953Z,23.27
2018-09-12T23:52:58.320Z,25.87
2018-09-12T23:55:26.676Z,26.67
2018-09-12T23:57:55.031Z,27.23
